sensor_id;sensor_type;location;lat;lon;timestamp;pressure;altitude;pressure_sealevel;temperature;humidity
23361;BME280;11852;50.082;18.554;2023-01-28T00:00:48;98976.0;;;1.2;62.96
23361;BME280;11852;50.082;18.554;2023-01-28T00:01:55;98974.5;;;1.23;62.87
23361;BME280;11852;50.082;18.554;2023-01-28T00:03:03;98973.5;;;1.11;63.15
23361;BME280;11852;50.082;18.554;2023-01-28T00:04:10;98977.0;;;1.19;62.92
23361;BME280;11852;50.082;18.554;2023-01-28T00:05:18;98972.5;;;1.24;62.98
23361;BME280;11852;50.082;18.554;2023-01-28T00:06:25;98973.5;;;1.31;62.92
23361;BME280;11852;50.082;18.554;2023-01-28T00:07:32;98973.0;;;1.26;63.14
23361;BME280;11852;50.082;18.554;2023-01-28T00:08:40;98975.5;;;1.27;62.99
23361;BME280;11852;50.082;18.554;2023-01-28T00:09:47;98974.5;;;1.33;62.81
23361;BME280;11852;50.082;18.554;2023-01-28T00:10:59;98971.5;;;1.29;62.81
23361;BME280;11852;50.082;18.554;2023-01-28T00:12:05;98971.5;;;1.21;63.14
23361;BME280;11852;50.082;18.554;2023-01-28T00:13:15;98971.0;;;1.19;62.89
23361;BME280;11852;50.082;18.554;2023-01-28T00:14:22;98970.5;;;1.07;63.21
23361;BME280;11852;50.082;18.554;2023-01-28T00:15:30;98968.5;;;1.22;62.83
23361;BME280;11852;50.082;18.554;2023-01-28T00:16:38;98969.0;;;1.06;63.28
23361;BME280;11852;50.082;18.554;2023-01-28T00:17:45;98967.5;;;0.91;63.58
23361;BME280;11852;50.082;18.554;2023-01-28T00:18:53;98965.5;;;1.07;63.19
23361;BME280;11852;50.082;18.554;2023-01-28T00:20:00;98967.01;;;1.0;63.34
23361;BME280;11852;50.082;18.554;2023-01-28T00:21:10;98969.5;;;1.1;63.17
23361;BME280;11852;50.082;18.554;2023-01-28T00:22:17;98971.0;;;1.14;63.26
23361;BME280;11852;50.082;18.554;2023-01-28T00:23:28;98972.0;;;1.05;63.5
23361;BME280;11852;50.082;18.554;2023-01-28T00:24:36;98971.0;;;1.18;63.05
23361;BME280;11852;50.082;18.554;2023-01-28T00:25:43;98970.5;;;1.21;63.05
23361;BME280;11852;50.082;18.554;2023-01-28T00:26:51;98973.0;;;1.22;63.07
23361;BME280;11852;50.082;18.554;2023-01-28T00:27:58;98973.5;;;1.18;63.19
23361;BME280;11852;50.082;18.554;2023-01-28T00:29:06;98972.0;;;1.26;62.94
23361;BME280;11852;50.082;18.554;2023-01-28T00:30:13;98970.5;;;1.3;62.94
23361;BME280;11852;50.082;18.554;2023-01-28T00:31:21;98972.0;;;1.34;62.82
23361;BME280;11852;50.082;18.554;2023-01-28T00:32:28;98971.5;;;1.34;62.84
23361;BME280;11852;50.082;18.554;2023-01-28T00:33:35;98971.0;;;1.37;62.88
23361;BME280;11852;50.082;18.554;2023-01-28T00:34:42;98971.0;;;1.31;62.89
23361;BME280;11852;50.082;18.554;2023-01-28T00:35:58;98972.5;;;1.41;62.63
23361;BME280;11852;50.082;18.554;2023-01-28T00:37:04;98974.0;;;1.26;62.96
23361;BME280;11852;50.082;18.554;2023-01-28T00:38:11;98973.0;;;1.32;62.74
23361;BME280;11852;50.082;18.554;2023-01-28T00:39:19;98975.5;;;1.39;62.56
23361;BME280;11852;50.082;18.554;2023-01-28T00:40:26;98974.0;;;1.23;63.01
23361;BME280;11852;50.082;18.554;2023-01-28T00:41:35;98976.0;;;1.19;62.9
23361;BME280;11852;50.082;18.554;2023-01-28T00:42:43;98978.0;;;1.19;62.82
23361;BME280;11852;50.082;18.554;2023-01-28T00:43:50;98982.0;;;1.18;62.89
23361;BME280;11852;50.082;18.554;2023-01-28T00:44:57;98981.5;;;1.05;63.17
23361;BME280;11852;50.082;18.554;2023-01-28T00:46:05;98977.5;;;0.92;63.43
23361;BME280;11852;50.082;18.554;2023-01-28T00:47:13;98978.5;;;1.03;63.22
23361;BME280;11852;50.082;18.554;2023-01-28T00:48:20;98978.5;;;1.05;63.29
23361;BME280;11852;50.082;18.554;2023-01-28T00:49:28;98975.5;;;1.09;63.3
23361;BME280;11852;50.082;18.554;2023-01-28T00:50:36;98975.5;;;1.06;63.03
23361;BME280;11852;50.082;18.554;2023-01-28T00:51:45;98971.0;;;1.14;62.85
23361;BME280;11852;50.082;18.554;2023-01-28T00:52:53;98972.0;;;1.17;62.85
23361;BME280;11852;50.082;18.554;2023-01-28T00:54:01;98972.5;;;1.2;62.99
23361;BME280;11852;50.082;18.554;2023-01-28T00:55:10;98974.5;;;1.11;63.07
23361;BME280;11852;50.082;18.554;2023-01-28T00:56:17;98973.5;;;1.11;62.8
23361;BME280;11852;50.082;18.554;2023-01-28T00:57:24;98973.0;;;0.93;63.16
23361;BME280;11852;50.082;18.554;2023-01-28T00:58:32;98971.0;;;0.88;63.35
23361;BME280;11852;50.082;18.554;2023-01-28T00:59:40;98973.0;;;1.02;63.09
23361;BME280;11852;50.082;18.554;2023-01-28T01:00:47;98972.5;;;1.05;63.13
23361;BME280;11852;50.082;18.554;2023-01-28T01:01:54;98971.5;;;0.97;63.22
23361;BME280;11852;50.082;18.554;2023-01-28T01:03:01;98975.0;;;0.82;63.44
23361;BME280;11852;50.082;18.554;2023-01-28T01:04:09;98975.5;;;0.88;63.4
23361;BME280;11852;50.082;18.554;2023-01-28T01:05:16;98975.0;;;0.77;63.53
23361;BME280;11852;50.082;18.554;2023-01-28T01:06:23;98976.0;;;0.91;63.28
23361;BME280;11852;50.082;18.554;2023-01-28T01:07:31;98978.5;;;1.0;63.17
23361;BME280;11852;50.082;18.554;2023-01-28T01:08:39;98980.0;;;1.0;63.15
23361;BME280;11852;50.082;18.554;2023-01-28T01:09:47;98980.51;;;0.95;63.3
23361;BME280;11852;50.082;18.554;2023-01-28T01:10:57;98982.0;;;0.66;64.03
23361;BME280;11852;50.082;18.554;2023-01-28T01:12:02;98983.5;;;0.65;63.81
23361;BME280;11852;50.082;18.554;2023-01-28T01:13:10;98985.0;;;0.59;64.08
23361;BME280;11852;50.082;18.554;2023-01-28T01:14:19;98986.5;;;0.54;63.99
23361;BME280;11852;50.082;18.554;2023-01-28T01:15:26;98986.5;;;0.68;63.83
23361;BME280;11852;50.082;18.554;2023-01-28T01:16:34;98989.0;;;0.74;63.71
23361;BME280;11852;50.082;18.554;2023-01-28T01:17:43;98984.5;;;0.46;64.31
23361;BME280;11852;50.082;18.554;2023-01-28T01:18:50;98983.5;;;0.49;64.17
23361;BME280;11852;50.082;18.554;2023-01-28T01:19:57;98987.5;;;0.47;64.29
23361;BME280;11852;50.082;18.554;2023-01-28T01:21:06;98990.0;;;0.5;64.22
23361;BME280;11852;50.082;18.554;2023-01-28T01:22:12;98993.0;;;0.66;63.93
23361;BME280;11852;50.082;18.554;2023-01-28T01:23:19;98992.0;;;0.63;63.65
23361;BME280;11852;50.082;18.554;2023-01-28T01:24:28;98993.0;;;0.34;64.43
23361;BME280;11852;50.082;18.554;2023-01-28T01:25:38;98993.0;;;0.61;64.1
23361;BME280;11852;50.082;18.554;2023-01-28T01:26:44;98992.51;;;0.72;63.75
23361;BME280;11852;50.082;18.554;2023-01-28T01:27:54;98996.5;;;0.89;63.49
23361;BME280;11852;50.082;18.554;2023-01-28T01:29:01;98994.49;;;0.67;64.03
23361;BME280;11852;50.082;18.554;2023-01-28T01:30:09;98989.0;;;0.49;64.0
23361;BME280;11852;50.082;18.554;2023-01-28T01:31:17;98991.5;;;0.56;63.99
23361;BME280;11852;50.082;18.554;2023-01-28T01:32:32;98990.0;;;0.56;64.26
23361;BME280;11852;50.082;18.554;2023-01-28T01:33:31;98990.5;;;0.7;63.9
23361;BME280;11852;50.082;18.554;2023-01-28T01:34:39;98991.5;;;0.69;63.85
23361;BME280;11852;50.082;18.554;2023-01-28T01:35:52;98993.5;;;0.64;63.71
23361;BME280;11852;50.082;18.554;2023-01-28T01:36:54;98992.51;;;0.31;64.13
23361;BME280;11852;50.082;18.554;2023-01-28T01:38:02;98994.0;;;0.27;64.21
23361;BME280;11852;50.082;18.554;2023-01-28T01:39:12;98990.5;;;0.45;64.03
23361;BME280;11852;50.082;18.554;2023-01-28T01:40:19;98994.0;;;0.62;63.79
23361;BME280;11852;50.082;18.554;2023-01-28T01:41:29;98994.5;;;0.66;63.67
23361;BME280;11852;50.082;18.554;2023-01-28T01:42:35;98993.0;;;0.77;63.4
23361;BME280;11852;50.082;18.554;2023-01-28T01:43:48;98992.01;;;0.78;63.41
23361;BME280;11852;50.082;18.554;2023-01-28T01:46:12;98989.0;;;0.47;63.82
23361;BME280;11852;50.082;18.554;2023-01-28T01:47:20;98993.0;;;0.52;63.73
23361;BME280;11852;50.082;18.554;2023-01-28T01:48:31;98994.0;;;0.48;63.69
23361;BME280;11852;50.082;18.554;2023-01-28T01:49:36;98989.5;;;0.54;63.68
23361;BME280;11852;50.082;18.554;2023-01-28T01:50:59;98989.5;;;0.49;63.95
23361;BME280;11852;50.082;18.554;2023-01-28T01:51:58;98992.01;;;0.5;63.78
23361;BME280;11852;50.082;18.554;2023-01-28T01:53:06;98993.0;;;0.4;63.88
23361;BME280;11852;50.082;18.554;2023-01-28T01:54:11;98993.5;;;0.44;63.65
23361;BME280;11852;50.082;18.554;2023-01-28T01:55:19;98997.0;;;0.47;63.56
23361;BME280;11852;50.082;18.554;2023-01-28T01:56:27;99000.0;;;0.52;63.51
23361;BME280;11852;50.082;18.554;2023-01-28T01:57:33;99000.0;;;0.47;63.54
23361;BME280;11852;50.082;18.554;2023-01-28T01:58:42;99000.5;;;0.47;63.82
23361;BME280;11852;50.082;18.554;2023-01-28T01:59:49;98998.5;;;0.57;63.67
23361;BME280;11852;50.082;18.554;2023-01-28T02:00:56;98998.0;;;0.52;63.88
23361;BME280;11852;50.082;18.554;2023-01-28T02:02:04;98997.0;;;0.67;63.34
23361;BME280;11852;50.082;18.554;2023-01-28T02:03:11;98997.0;;;0.78;63.18
23361;BME280;11852;50.082;18.554;2023-01-28T02:04:25;99002.0;;;0.82;63.07
23361;BME280;11852;50.082;18.554;2023-01-28T02:05:27;99000.5;;;0.73;63.47
23361;BME280;11852;50.082;18.554;2023-01-28T02:06:34;98999.5;;;0.39;64.07
23361;BME280;11852;50.082;18.554;2023-01-28T02:07:42;99000.5;;;0.41;64.08
23361;BME280;11852;50.082;18.554;2023-01-28T02:08:52;98999.5;;;0.36;64.22
23361;BME280;11852;50.082;18.554;2023-01-28T02:09:56;98999.0;;;0.43;63.92
23361;BME280;11852;50.082;18.554;2023-01-28T02:11:04;99004.0;;;0.34;64.15
23361;BME280;11852;50.082;18.554;2023-01-28T02:12:11;98999.5;;;0.37;64.19
23361;BME280;11852;50.082;18.554;2023-01-28T02:13:18;99000.0;;;0.25;64.76
23361;BME280;11852;50.082;18.554;2023-01-28T02:14:25;99002.5;;;0.3;64.35
23361;BME280;11852;50.082;18.554;2023-01-28T02:15:33;99001.0;;;0.3;64.4
23361;BME280;11852;50.082;18.554;2023-01-28T02:16:40;99002.0;;;0.3;65.0
23361;BME280;11852;50.082;18.554;2023-01-28T02:17:48;99001.0;;;0.32;64.63
23361;BME280;11852;50.082;18.554;2023-01-28T02:18:55;98999.5;;;0.35;64.51
23361;BME280;11852;50.082;18.554;2023-01-28T02:20:07;99002.0;;;0.38;64.73
23361;BME280;11852;50.082;18.554;2023-01-28T02:21:28;99005.0;;;0.26;64.86
23361;BME280;11852;50.082;18.554;2023-01-28T02:25:07;99006.0;;;0.27;64.85
23361;BME280;11852;50.082;18.554;2023-01-28T02:27:32;98999.0;;;0.41;64.35
23361;BME280;11852;50.082;18.554;2023-01-28T02:32:24;98997.5;;;0.55;64.35
23361;BME280;11852;50.082;18.554;2023-01-28T02:33:34;99001.5;;;0.81;64.0
23361;BME280;11852;50.082;18.554;2023-01-28T02:34:49;99003.0;;;0.59;64.44
23361;BME280;11852;50.082;18.554;2023-01-28T02:35:54;99003.5;;;0.56;64.57
23361;BME280;11852;50.082;18.554;2023-01-28T02:38:19;99005.51;;;0.56;64.18
23361;BME280;11852;50.082;18.554;2023-01-28T02:39:32;98999.0;;;0.25;65.45
23361;BME280;11852;50.082;18.554;2023-01-28T02:40:37;99004.51;;;0.3;65.07
23361;BME280;11852;50.082;18.554;2023-01-28T02:42:56;99010.5;;;0.36;65.25
23361;BME280;11852;50.082;18.554;2023-01-28T02:44:04;99011.0;;;0.31;65.26
23361;BME280;11852;50.082;18.554;2023-01-28T02:45:14;99014.0;;;0.3;65.22
23361;BME280;11852;50.082;18.554;2023-01-28T02:47:38;99013.0;;;0.35;65.39
23361;BME280;11852;50.082;18.554;2023-01-28T02:48:46;99012.5;;;0.26;65.67
23361;BME280;11852;50.082;18.554;2023-01-28T02:49:54;99016.5;;;0.3;65.74
23361;BME280;11852;50.082;18.554;2023-01-28T02:51:55;99012.5;;;0.19;65.96
23361;BME280;11852;50.082;18.554;2023-01-28T02:53:45;99010.0;;;0.24;66.28
23361;BME280;11852;50.082;18.554;2023-01-28T02:54:57;99012.5;;;0.09;66.54
23361;BME280;11852;50.082;18.554;2023-01-28T02:56:13;99010.5;;;0.13;66.57
23361;BME280;11852;50.082;18.554;2023-01-28T02:59:56;99013.5;;;0.5;65.85
23361;BME280;11852;50.082;18.554;2023-01-28T03:04:47;99012.5;;;0.38;66.21
23361;BME280;11852;50.082;18.554;2023-01-28T03:06:01;99010.5;;;0.28;66.54
23361;BME280;11852;50.082;18.554;2023-01-28T03:07:08;99012.0;;;0.35;66.57
23361;BME280;11852;50.082;18.554;2023-01-28T03:08:20;99010.0;;;0.28;66.7
23361;BME280;11852;50.082;18.554;2023-01-28T03:09:27;99014.5;;;0.34;66.55
23361;BME280;11852;50.082;18.554;2023-01-28T03:10:35;99013.5;;;0.33;66.26
23361;BME280;11852;50.082;18.554;2023-01-28T03:13:06;99016.5;;;0.23;66.9
23361;BME280;11852;50.082;18.554;2023-01-28T03:14:19;99014.0;;;0.23;66.69
23361;BME280;11852;50.082;18.554;2023-01-28T03:15:32;99012.5;;;0.13;67.24
23361;BME280;11852;50.082;18.554;2023-01-28T03:16:43;99010.5;;;0.04;67.31
23361;BME280;11852;50.082;18.554;2023-01-28T03:18:06;99016.0;;;0.19;67.04
23361;BME280;11852;50.082;18.554;2023-01-28T03:19:17;99016.5;;;0.24;67.07
23361;BME280;11852;50.082;18.554;2023-01-28T03:21:46;99014.0;;;0.19;67.13
23361;BME280;11852;50.082;18.554;2023-01-28T03:23:00;99013.5;;;0.28;66.58
23361;BME280;11852;50.082;18.554;2023-01-28T03:24:13;99015.5;;;0.44;66.29
23361;BME280;11852;50.082;18.554;2023-01-28T03:25:24;99012.5;;;0.35;66.4
23361;BME280;11852;50.082;18.554;2023-01-28T03:26:39;99014.0;;;0.5;66.02
23361;BME280;11852;50.082;18.554;2023-01-28T03:27:52;99014.5;;;0.57;65.79
23361;BME280;11852;50.082;18.554;2023-01-28T03:29:04;99012.5;;;0.72;65.47
23361;BME280;11852;50.082;18.554;2023-01-28T03:30:25;99014.5;;;0.76;65.32
23361;BME280;11852;50.082;18.554;2023-01-28T03:31:35;99015.5;;;0.54;65.88
23361;BME280;11852;50.082;18.554;2023-01-28T03:32:48;99019.0;;;0.56;65.9
23361;BME280;11852;50.082;18.554;2023-01-28T03:34:01;99017.51;;;0.43;66.07
23361;BME280;11852;50.082;18.554;2023-01-28T03:35:15;99015.5;;;0.41;66.0
23361;BME280;11852;50.082;18.554;2023-01-28T03:36:27;99015.5;;;0.5;66.02
23361;BME280;11852;50.082;18.554;2023-01-28T03:37:35;99018.5;;;0.63;65.81
23361;BME280;11852;50.082;18.554;2023-01-28T03:38:43;99018.0;;;0.59;65.83
23361;BME280;11852;50.082;18.554;2023-01-28T03:39:50;99017.0;;;0.61;65.7
23361;BME280;11852;50.082;18.554;2023-01-28T03:41:02;99015.5;;;0.38;66.23
23361;BME280;11852;50.082;18.554;2023-01-28T03:42:10;99016.0;;;0.47;66.15
23361;BME280;11852;50.082;18.554;2023-01-28T03:43:18;99017.5;;;0.43;66.18
23361;BME280;11852;50.082;18.554;2023-01-28T03:44:30;99018.5;;;0.44;65.93
23361;BME280;11852;50.082;18.554;2023-01-28T03:45:38;99022.0;;;0.58;65.5
23361;BME280;11852;50.082;18.554;2023-01-28T03:46:45;99018.0;;;0.32;65.99
23361;BME280;11852;50.082;18.554;2023-01-28T03:47:52;99020.5;;;0.16;66.43
23361;BME280;11852;50.082;18.554;2023-01-28T03:49:01;99020.0;;;0.38;66.06
23361;BME280;11852;50.082;18.554;2023-01-28T03:50:09;99020.49;;;0.38;66.21
23361;BME280;11852;50.082;18.554;2023-01-28T03:51:17;99020.0;;;0.3;66.39
23361;BME280;11852;50.082;18.554;2023-01-28T03:52:29;99022.5;;;0.28;66.24
23361;BME280;11852;50.082;18.554;2023-01-28T03:53:36;99019.0;;;0.41;66.11
23361;BME280;11852;50.082;18.554;2023-01-28T03:54:44;99018.5;;;0.43;66.21
23361;BME280;11852;50.082;18.554;2023-01-28T03:55:52;99015.0;;;0.3;66.58
23361;BME280;11852;50.082;18.554;2023-01-28T03:56:59;99017.0;;;0.29;66.42
23361;BME280;11852;50.082;18.554;2023-01-28T03:58:07;99017.01;;;0.4;66.25
23361;BME280;11852;50.082;18.554;2023-01-28T03:59:14;99017.5;;;0.6;65.72
23361;BME280;11852;50.082;18.554;2023-01-28T04:00:22;99014.0;;;0.4;66.2
23361;BME280;11852;50.082;18.554;2023-01-28T04:01:29;99017.0;;;0.69;65.74
23361;BME280;11852;50.082;18.554;2023-01-28T04:02:37;99016.0;;;0.56;65.96
23361;BME280;11852;50.082;18.554;2023-01-28T04:03:45;99015.0;;;0.67;65.49
23361;BME280;11852;50.082;18.554;2023-01-28T04:04:53;99017.01;;;0.63;65.44
23361;BME280;11852;50.082;18.554;2023-01-28T04:06:02;99011.5;;;0.47;65.9
23361;BME280;11852;50.082;18.554;2023-01-28T04:07:10;99017.5;;;0.52;65.93
23361;BME280;11852;50.082;18.554;2023-01-28T04:08:16;99018.5;;;0.75;65.21
23361;BME280;11852;50.082;18.554;2023-01-28T04:09:23;99019.0;;;0.72;65.39
23361;BME280;11852;50.082;18.554;2023-01-28T04:10:31;99019.0;;;0.69;65.31
23361;BME280;11852;50.082;18.554;2023-01-28T04:11:39;99023.0;;;0.52;65.66
23361;BME280;11852;50.082;18.554;2023-01-28T04:12:47;99020.49;;;0.47;65.74
23361;BME280;11852;50.082;18.554;2023-01-28T04:13:55;99021.0;;;0.44;65.74
23361;BME280;11852;50.082;18.554;2023-01-28T04:15:04;99020.5;;;0.5;65.76
23361;BME280;11852;50.082;18.554;2023-01-28T04:16:12;99025.0;;;0.42;65.92
23361;BME280;11852;50.082;18.554;2023-01-28T04:17:19;99025.0;;;0.57;65.41
23361;BME280;11852;50.082;18.554;2023-01-28T04:18:27;99027.0;;;0.71;65.13
23361;BME280;11852;50.082;18.554;2023-01-28T04:19:35;99026.5;;;0.79;65.0
23361;BME280;11852;50.082;18.554;2023-01-28T04:20:44;99025.0;;;0.85;64.86
23361;BME280;11852;50.082;18.554;2023-01-28T04:21:54;99031.0;;;0.58;65.6
23361;BME280;11852;50.082;18.554;2023-01-28T04:23:01;99030.5;;;0.75;65.06
23361;BME280;11852;50.082;18.554;2023-01-28T04:24:08;99026.5;;;0.81;64.88
23361;BME280;11852;50.082;18.554;2023-01-28T04:25:15;99027.5;;;0.83;64.79
23361;BME280;11852;50.082;18.554;2023-01-28T04:26:22;99028.5;;;0.77;65.12
23361;BME280;11852;50.082;18.554;2023-01-28T04:27:29;99029.0;;;0.81;65.07
23361;BME280;11852;50.082;18.554;2023-01-28T04:28:37;99032.0;;;0.83;65.11
23361;BME280;11852;50.082;18.554;2023-01-28T04:29:45;99030.0;;;0.85;65.13
23361;BME280;11852;50.082;18.554;2023-01-28T04:30:52;99031.0;;;0.86;65.15
23361;BME280;11852;50.082;18.554;2023-01-28T04:31:59;99028.5;;;0.73;65.19
23361;BME280;11852;50.082;18.554;2023-01-28T04:33:07;99026.0;;;0.79;64.98
23361;BME280;11852;50.082;18.554;2023-01-28T04:34:14;99025.0;;;0.85;64.89
23361;BME280;11852;50.082;18.554;2023-01-28T04:35:22;99023.5;;;0.84;64.85
23361;BME280;11852;50.082;18.554;2023-01-28T04:36:29;99021.0;;;0.92;64.7
23361;BME280;11852;50.082;18.554;2023-01-28T04:37:39;99023.5;;;0.92;64.72
23361;BME280;11852;50.082;18.554;2023-01-28T04:38:46;99026.0;;;0.76;64.94
23361;BME280;11852;50.082;18.554;2023-01-28T04:39:54;99026.5;;;0.81;64.93
23361;BME280;11852;50.082;18.554;2023-01-28T04:41:02;99026.5;;;0.81;64.57
23361;BME280;11852;50.082;18.554;2023-01-28T04:42:09;99028.5;;;0.92;64.61
23361;BME280;11852;50.082;18.554;2023-01-28T04:43:17;99028.5;;;0.66;65.06
23361;BME280;11852;50.082;18.554;2023-01-28T04:44:26;99029.5;;;0.73;64.85
23361;BME280;11852;50.082;18.554;2023-01-28T04:45:33;99029.5;;;0.7;64.97
23361;BME280;11852;50.082;18.554;2023-01-28T04:46:41;99030.0;;;0.87;64.42
23361;BME280;11852;50.082;18.554;2023-01-28T04:47:49;99029.0;;;0.96;64.24
23361;BME280;11852;50.082;18.554;2023-01-28T04:48:57;99030.5;;;0.92;64.47
23361;BME280;11852;50.082;18.554;2023-01-28T04:50:07;99029.5;;;0.78;64.58
23361;BME280;11852;50.082;18.554;2023-01-28T04:51:16;99030.5;;;0.97;64.07
23361;BME280;11852;50.082;18.554;2023-01-28T04:52:24;99033.5;;;1.0;64.15
23361;BME280;11852;50.082;18.554;2023-01-28T04:53:33;99033.5;;;0.87;64.29
23361;BME280;11852;50.082;18.554;2023-01-28T04:54:42;99038.5;;;0.74;64.63
23361;BME280;11852;50.082;18.554;2023-01-28T04:55:49;99038.5;;;0.77;64.35
23361;BME280;11852;50.082;18.554;2023-01-28T04:56:56;99039.0;;;0.85;64.27
23361;BME280;11852;50.082;18.554;2023-01-28T04:58:05;99043.5;;;0.85;64.4
23361;BME280;11852;50.082;18.554;2023-01-28T04:59:12;99043.5;;;0.86;64.38
23361;BME280;11852;50.082;18.554;2023-01-28T05:00:20;99045.0;;;0.87;64.31
23361;BME280;11852;50.082;18.554;2023-01-28T05:01:27;99044.0;;;0.87;64.28
23361;BME280;11852;50.082;18.554;2023-01-28T05:02:36;99044.0;;;0.8;64.39
23361;BME280;11852;50.082;18.554;2023-01-28T05:03:43;99044.0;;;0.94;64.17
23361;BME280;11852;50.082;18.554;2023-01-28T05:04:51;99044.5;;;0.64;64.74
23361;BME280;11852;50.082;18.554;2023-01-28T05:05:59;99048.5;;;0.77;64.18
23361;BME280;11852;50.082;18.554;2023-01-28T05:07:06;99047.5;;;0.74;64.24
23361;BME280;11852;50.082;18.554;2023-01-28T05:08:15;99047.0;;;0.93;64.04
23361;BME280;11852;50.082;18.554;2023-01-28T05:09:22;99048.5;;;1.0;63.93
23361;BME280;11852;50.082;18.554;2023-01-28T05:10:29;99046.5;;;0.53;64.86
23361;BME280;11852;50.082;18.554;2023-01-28T05:11:36;99045.0;;;0.46;65.13
23361;BME280;11852;50.082;18.554;2023-01-28T05:12:45;99046.5;;;0.68;64.34
23361;BME280;11852;50.082;18.554;2023-01-28T05:13:53;99044.5;;;0.7;64.47
23361;BME280;11852;50.082;18.554;2023-01-28T05:15:00;99046.5;;;0.78;64.19
23361;BME280;11852;50.082;18.554;2023-01-28T05:16:07;99045.5;;;0.37;65.2
23361;BME280;11852;50.082;18.554;2023-01-28T05:17:14;99044.0;;;0.36;65.11
23361;BME280;11852;50.082;18.554;2023-01-28T05:18:22;99044.0;;;0.62;64.46
23361;BME280;11852;50.082;18.554;2023-01-28T05:19:29;99038.5;;;0.63;64.43
23361;BME280;11852;50.082;18.554;2023-01-28T05:20:37;99038.5;;;0.29;65.22
23361;BME280;11852;50.082;18.554;2023-01-28T05:21:45;99042.51;;;0.55;64.71
23361;BME280;11852;50.082;18.554;2023-01-28T05:22:52;99042.51;;;0.63;64.46
23361;BME280;11852;50.082;18.554;2023-01-28T05:24:00;99044.5;;;0.7;64.4
23361;BME280;11852;50.082;18.554;2023-01-28T05:25:08;99044.0;;;0.82;64.2
23361;BME280;11852;50.082;18.554;2023-01-28T05:26:15;99045.49;;;0.88;64.14
23361;BME280;11852;50.082;18.554;2023-01-28T05:27:24;99048.5;;;0.79;64.46
23361;BME280;11852;50.082;18.554;2023-01-28T05:28:31;99049.5;;;0.76;64.28
23361;BME280;11852;50.082;18.554;2023-01-28T05:29:38;99050.0;;;0.93;63.97
23361;BME280;11852;50.082;18.554;2023-01-28T05:30:45;99049.0;;;0.84;64.13
23361;BME280;11852;50.082;18.554;2023-01-28T05:31:53;99050.0;;;0.84;64.15
23361;BME280;11852;50.082;18.554;2023-01-28T05:33:02;99052.5;;;0.93;63.98
23361;BME280;11852;50.082;18.554;2023-01-28T05:34:09;99055.01;;;0.82;64.14
23361;BME280;11852;50.082;18.554;2023-01-28T05:35:18;99055.5;;;0.85;64.25
23361;BME280;11852;50.082;18.554;2023-01-28T05:36:25;99056.99;;;0.75;64.38
23361;BME280;11852;50.082;18.554;2023-01-28T05:37:32;99052.5;;;0.85;64.26
23361;BME280;11852;50.082;18.554;2023-01-28T05:38:39;99057.5;;;0.79;64.55
23361;BME280;11852;50.082;18.554;2023-01-28T05:39:47;99057.0;;;0.86;64.26
23361;BME280;11852;50.082;18.554;2023-01-28T05:40:54;99059.5;;;0.89;64.31
23361;BME280;11852;50.082;18.554;2023-01-28T05:42:01;99057.49;;;0.74;64.54
23361;BME280;11852;50.082;18.554;2023-01-28T05:43:08;99060.5;;;0.75;64.35
23361;BME280;11852;50.082;18.554;2023-01-28T05:44:15;99062.5;;;0.84;64.09
23361;BME280;11852;50.082;18.554;2023-01-28T05:45:23;99060.0;;;0.91;63.93
23361;BME280;11852;50.082;18.554;2023-01-28T05:46:31;99057.99;;;0.96;63.86
23361;BME280;11852;50.082;18.554;2023-01-28T05:47:39;99062.0;;;0.87;64.06
23361;BME280;11852;50.082;18.554;2023-01-28T05:48:46;99062.5;;;0.85;64.0
23361;BME280;11852;50.082;18.554;2023-01-28T05:49:54;99063.0;;;0.87;64.06
23361;BME280;11852;50.082;18.554;2023-01-28T05:51:02;99063.5;;;0.97;63.82
23361;BME280;11852;50.082;18.554;2023-01-28T05:52:11;99067.0;;;0.96;63.89
23361;BME280;11852;50.082;18.554;2023-01-28T05:53:19;99064.5;;;0.85;63.94
23361;BME280;11852;50.082;18.554;2023-01-28T05:54:26;99068.01;;;0.68;64.35
23361;BME280;11852;50.082;18.554;2023-01-28T05:55:34;99068.01;;;0.66;64.26
23361;BME280;11852;50.082;18.554;2023-01-28T05:56:41;99068.5;;;0.55;64.56
23361;BME280;11852;50.082;18.554;2023-01-28T05:57:49;99070.0;;;0.5;64.43
23361;BME280;11852;50.082;18.554;2023-01-28T05:58:57;99073.0;;;0.69;64.07
23361;BME280;11852;50.082;18.554;2023-01-28T06:00:05;99071.5;;;0.29;65.19
23361;BME280;11852;50.082;18.554;2023-01-28T06:01:13;99071.5;;;0.31;64.83
23361;BME280;11852;50.082;18.554;2023-01-28T06:02:22;99076.5;;;0.31;65.0
23361;BME280;11852;50.082;18.554;2023-01-28T06:03:30;99079.0;;;0.54;64.42
23361;BME280;11852;50.082;18.554;2023-01-28T06:04:37;99080.51;;;0.52;64.35
23361;BME280;11852;50.082;18.554;2023-01-28T06:05:44;99085.5;;;0.42;64.6
23361;BME280;11852;50.082;18.554;2023-01-28T06:06:52;99089.0;;;0.54;64.34
23361;BME280;11852;50.082;18.554;2023-01-28T06:08:00;99089.0;;;0.45;64.49
23361;BME280;11852;50.082;18.554;2023-01-28T06:09:07;99096.0;;;0.54;64.32
23361;BME280;11852;50.082;18.554;2023-01-28T06:10:15;99099.5;;;0.44;64.6
23361;BME280;11852;50.082;18.554;2023-01-28T06:11:22;99098.5;;;0.32;64.79
23361;BME280;11852;50.082;18.554;2023-01-28T06:12:29;99101.5;;;0.42;64.58
23361;BME280;11852;50.082;18.554;2023-01-28T06:13:37;99103.0;;;0.4;64.66
23361;BME280;11852;50.082;18.554;2023-01-28T06:14:45;99103.0;;;0.56;64.39
23361;BME280;11852;50.082;18.554;2023-01-28T06:15:53;99106.0;;;0.56;64.43
23361;BME280;11852;50.082;18.554;2023-01-28T06:17:00;99106.5;;;0.66;64.07
23361;BME280;11852;50.082;18.554;2023-01-28T06:18:08;99107.49;;;0.63;64.1
23361;BME280;11852;50.082;18.554;2023-01-28T06:19:16;99108.0;;;0.45;64.76
23361;BME280;11852;50.082;18.554;2023-01-28T06:20:26;99110.5;;;0.66;64.04
23361;BME280;11852;50.082;18.554;2023-01-28T06:21:33;99112.5;;;0.62;64.25
23361;BME280;11852;50.082;18.554;2023-01-28T06:22:41;99110.5;;;0.54;64.79
23361;BME280;11852;50.082;18.554;2023-01-28T06:23:48;99112.0;;;0.54;64.56
23361;BME280;11852;50.082;18.554;2023-01-28T06:24:55;99112.5;;;0.39;64.92
23361;BME280;11852;50.082;18.554;2023-01-28T06:26:02;99114.5;;;0.38;65.07
23361;BME280;11852;50.082;18.554;2023-01-28T06:27:11;99117.0;;;0.58;64.52
23361;BME280;11852;50.082;18.554;2023-01-28T06:28:18;99118.99;;;0.67;64.44
23361;BME280;11852;50.082;18.554;2023-01-28T06:29:25;99120.49;;;0.86;64.06
23361;BME280;11852;50.082;18.554;2023-01-28T06:30:33;99119.99;;;0.64;64.28